Time;durP1;ratioP1;P1;durP2;ratioP2;P2;SDS_P1;SDS_P2;PMS_P1;PMS_P2;Temp;Humidity;BMP_temperature;BMP_pressure;BME280_temperature;BME280_humidity;BME280_pressure;Samples;Min_cycle;Max_cycle;Signal;HPM_P1;HPM_P2
2022/07/02 00:00:52;;;;;;;6.57;5.87;;;;;;;-143.84;82.61;45014.78;5054303;28;20445;-75
2022/07/02 00:03:24;;;;;;;7.00;6.30;;;;;;;-143.84;82.64;45041.44;5053947;28;20445;-75
2022/07/02 00:05:57;;;;;;;7.13;6.53;;;;;;;-143.84;82.15;45022.41;5054018;28;20971;-75
2022/07/02 00:08:26;;;;;;;8.83;6.17;;;;;;;-143.84;81.79;45016.69;5054288;28;20425;-75
2022/07/02 00:10:56;;;;;;;7.33;6.43;;;;;;;-143.84;81.42;44993.84;5054398;28;20856;-75
2022/07/02 00:13:26;;;;;;;6.23;5.63;;;;;;;-143.84;80.56;45024.31;5053747;28;20970;-75
2022/07/02 00:15:53;;;;;;;9.17;5.93;;;;;;;-143.84;80.52;45030.03;5053719;28;20454;-75
2022/07/02 00:18:21;;;;;;;8.10;7.30;;;;;;;-143.84;80.56;45031.94;5054157;28;20512;-75
2022/07/02 00:20:49;;;;;;;7.47;6.87;;;;;;;-143.84;80.89;45035.75;5054253;28;20434;-75
2022/07/02 00:23:16;;;;;;;7.80;6.30;;;;;;;-143.84;81.61;45026.22;5053915;28;20442;-75
2022/07/02 00:25:45;;;;;;;5.93;5.53;;;;;;;-143.84;82.09;45024.31;5053837;28;20507;-75
2022/07/02 00:28:17;;;;;;;7.47;6.77;;;;;;;-143.84;82.07;45031.94;5051840;28;21120;-75
2022/07/02 00:30:47;;;;;;;7.00;6.40;;;;;;;-143.84;81.48;45045.25;5052043;28;20480;-75
2022/07/02 00:33:15;;;;;;;6.90;6.20;;;;;;;-143.84;81.81;45043.34;5053423;28;20434;-75
2022/07/02 00:35:43;;;;;;;6.70;5.47;;;;;;;-143.84;81.56;45024.31;5053724;28;20504;-75
2022/07/02 00:38:10;;;;;;;6.80;6.20;;;;;;;-143.84;81.70;45039.53;5053706;28;20445;-75
2022/07/02 00:40:38;;;;;;;8.13;6.60;;;;;;;-143.84;82.59;45018.59;5053411;28;20449;-75
2022/07/02 00:43:06;;;;;;;6.87;6.20;;;;;;;-143.84;82.56;45020.50;5053596;28;20438;-75
2022/07/02 00:45:35;;;;;;;6.70;6.20;;;;;;;-143.84;82.27;45035.75;5053434;28;20442;-75
2022/07/02 00:48:03;;;;;;;6.80;6.17;;;;;;;-143.84;82.42;45052.88;5053385;28;20525;-75
2022/07/02 00:50:31;;;;;;;6.83;5.93;;;;;;;-143.84;82.26;45041.44;5053553;28;21236;-75
2022/07/02 00:52:58;;;;;;;6.10;5.60;;;;;;;-143.84;81.22;45039.53;5053510;28;20503;-75
2022/07/02 00:55:25;;;;;;;6.80;6.20;;;;;;;-143.84;81.19;45016.69;5053439;28;20473;-75
2022/07/02 00:57:54;;;;;;;7.33;6.73;;;;;;;-143.84;81.11;45014.78;5052804;28;20434;-75
2022/07/02 01:00:21;;;;;;;9.70;6.13;;;;;;;-143.84;81.21;45026.22;5052792;28;20437;-75
2022/07/02 01:02:51;;;;;;;7.17;6.57;;;;;;;-143.84;81.34;45050.97;5053318;28;20497;-75
2022/07/02 01:05:20;;;;;;;7.47;6.47;;;;;;;-143.84;81.76;45031.94;5053176;28;20516;-75
2022/07/02 01:10:16;;;;;;;7.20;6.70;;;;;;;-143.84;82.22;45047.16;5052729;28;20445;-76
2022/07/02 01:10:43;;;;;;;8.10;6.97;;;;;;;-143.84;83.58;45033.84;5052885;28;20470;-75
2022/07/02 01:13:12;;;;;;;7.60;7.00;;;;;;;-143.84;84.61;45043.34;5052104;28;20442;-75
2022/07/02 01:15:40;;;;;;;7.33;6.73;;;;;;;-143.84;85.05;45049.06;5052013;28;20508;-75
2022/07/02 01:18:10;;;;;;;9.13;7.10;;;;;;;-143.84;85.83;45026.22;5052169;28;20453;-75
2022/07/02 01:20:37;;;;;;;7.90;7.30;;;;;;;-143.84;86.58;45031.94;5052012;28;20454;-75
2022/07/02 01:23:06;;;;;;;7.13;6.60;;;;;;;-143.84;87.00;45039.53;5051970;28;20434;-75
2022/07/02 01:25:33;;;;;;;7.57;6.97;;;;;;;-143.84;87.11;45045.25;5051693;28;20481;-75
2022/07/02 01:28:01;;;;;;;6.90;6.40;;;;;;;-143.84;87.36;45066.22;5051959;28;20433;-75
2022/07/02 01:30:28;;;;;;;14.73;7.30;;;;;;;-143.84;87.39;45031.94;5051689;28;20477;-75
2022/07/02 01:32:55;;;;;;;7.83;7.13;;;;;;;-143.84;87.99;45022.41;5051634;28;20520;-75
2022/07/02 01:35:22;;;;;;;8.07;7.37;;;;;;;-143.84;88.02;45033.84;5051638;28;20437;-75
2022/07/02 01:37:50;;;;;;;10.30;7.93;;;;;;;-143.84;88.43;45018.59;5051853;28;20465;-75
2022/07/02 01:40:18;;;;;;;9.10;8.20;;;;;;;-143.84;88.76;45041.44;5051920;28;20426;-75
2022/07/02 01:42:46;;;;;;;7.97;7.40;;;;;;;-143.84;88.92;45056.69;5051517;28;20438;-75
2022/07/02 01:45:13;;;;;;;8.47;7.77;;;;;;;-143.84;88.47;45045.25;5051402;28;20445;-75
2022/07/02 01:47:40;;;;;;;7.73;7.00;;;;;;;-143.84;88.00;45030.03;5052078;28;20438;-75
2022/07/02 01:50:08;;;;;;;8.27;7.57;;;;;;;-143.84;88.64;45050.97;5052172;28;20485;-75
2022/07/02 01:52:36;;;;;;;8.10;6.90;;;;;;;-143.84;88.87;45037.66;5050926;28;20476;-75
2022/07/02 01:55:04;;;;;;;7.93;7.33;;;;;;;-143.84;88.81;45037.66;5034127;28;20480;-75
2022/07/02 01:57:35;;;;;;;8.80;7.93;;;;;;;-143.84;89.10;45010.97;5050982;28;20928;-75
2022/07/02 02:00:03;;;;;;;8.93;7.67;;;;;;;-143.84;88.52;45039.53;5051528;28;20450;-75
2022/07/02 02:02:30;;;;;;;8.70;8.00;;;;;;;-143.84;89.34;45028.13;5051398;28;20448;-75
2022/07/02 02:04:58;;;;;;;7.77;7.27;;;;;;;-143.84;89.12;45035.75;5051548;28;20468;-75
2022/07/02 02:07:25;;;;;;;8.63;7.13;;;;;;;-143.84;89.47;45041.44;5051069;28;20484;-75
2022/07/02 02:09:53;;;;;;;8.77;8.00;;;;;;;-143.84;89.67;45037.66;5051083;28;21321;-75
2022/07/02 02:12:20;;;;;;;8.50;7.80;;;;;;;-143.84;89.60;45035.75;5050985;28;20480;-75
2022/07/02 02:14:49;;;;;;;6.50;6.10;;;;;;;-143.84;89.56;45030.03;5050992;28;20434;-75
2022/07/02 02:17:16;;;;;;;7.93;7.13;;;;;;;-143.84;88.75;45041.44;5050906;28;20501;-75
2022/07/02 02:19:43;;;;;;;8.20;7.30;;;;;;;-143.84;88.91;45058.59;5051140;28;20442;-75
2022/07/02 02:22:10;;;;;;;10.53;8.67;;;;;;;-143.84;88.77;45028.13;5051270;28;20434;-75
2022/07/02 02:24:38;;;;;;;9.43;8.60;;;;;;;-143.84;89.22;45028.13;5050624;28;20489;-75
2022/07/02 02:27:05;;;;;;;9.33;8.43;;;;;;;-143.84;89.78;45010.97;5051010;28;20870;-75
2022/07/02 02:29:32;;;;;;;9.37;8.27;;;;;;;-143.84;89.95;45037.66;5050936;28;20492;-75
2022/07/02 02:32:01;;;;;;;10.27;8.60;;;;;;;-143.84;89.87;45028.13;5050614;28;20426;-76
2022/07/02 02:34:28;;;;;;;9.03;8.13;;;;;;;-143.84;89.76;45030.03;5050791;28;20448;-76
2022/07/02 02:36:55;;;;;;;9.30;8.33;;;;;;;-143.84;89.70;45041.44;5050826;28;20433;-76
2022/07/02 02:39:22;;;;;;;9.47;8.40;;;;;;;-143.84;89.55;45033.84;5050248;28;20507;-76
2022/07/02 02:41:50;;;;;;;9.53;7.57;;;;;;;-143.84;90.05;45085.25;5050615;28;20921;-75
2022/07/02 02:44:17;;;;;;;8.73;8.07;;;;;;;-143.84;90.29;45020.50;5051088;28;20442;-76
2022/07/02 02:46:44;;;;;;;9.20;8.40;;;;;;;-143.84;89.82;45033.84;5050692;28;20492;-75
2022/07/02 02:49:13;;;;;;;8.13;7.43;;;;;;;-143.84;89.53;45054.78;5049836;28;20445;-76
2022/07/02 02:51:40;;;;;;;8.00;7.40;;;;;;;-143.84;89.29;45026.22;5049918;28;20508;-76
2022/07/02 02:54:07;;;;;;;9.53;8.73;;;;;;;-143.84;89.56;45018.59;5049699;28;20508;-76
2022/07/02 02:56:34;;;;;;;9.40;8.70;;;;;;;-143.84;89.69;45050.97;5049528;28;20503;-76
2022/07/02 02:59:01;;;;;;;8.87;7.97;;;;;;;-143.84;89.72;45026.22;5049476;28;20491;-76
2022/07/02 03:01:28;;;;;;;8.27;7.57;;;;;;;-143.84;89.89;45043.34;5049786;28;20445;-75
2022/07/02 03:03:55;;;;;;;8.67;7.97;;;;;;;-143.84;89.43;45035.75;5050054;28;20446;-75
2022/07/02 03:06:24;;;;;;;9.13;7.90;;;;;;;-143.84;89.67;45045.25;5049766;28;20441;-75
2022/07/02 03:08:51;;;;;;;8.53;7.90;;;;;;;-143.84;89.67;45035.75;5049925;28;20449;-75
2022/07/02 03:11:18;;;;;;;9.33;8.63;;;;;;;-143.84;89.82;45039.53;5049953;28;20478;-75
2022/07/02 03:13:45;;;;;;;9.20;7.00;;;;;;;-143.84;89.90;45009.09;5049621;28;20449;-75
2022/07/02 03:16:12;;;;;;;11.30;8.50;;;;;;;-143.84;90.32;45075.72;5049714;28;20444;-75
2022/07/02 03:18:39;;;;;;;10.77;9.97;;;;;;;-143.84;90.04;45043.34;5049689;28;20445;-75
2022/07/02 03:21:06;;;;;;;9.80;9.00;;;;;;;-143.84;90.44;45033.84;5049538;28;20457;-75
2022/07/02 03:23:35;;;;;;;9.70;8.97;;;;;;;-143.84;91.03;45020.50;5049863;28;20446;-76
2022/07/02 03:26:02;;;;;;;9.47;7.90;;;;;;;-143.84;90.94;45014.78;5049357;28;20521;-76
2022/07/02 03:28:30;;;;;;;9.77;8.97;;;;;;;-143.84;91.26;45030.03;5049962;28;20438;-75
2022/07/02 03:30:57;;;;;;;10.23;9.43;;;;;;;-143.84;91.54;45031.94;5049774;28;20469;-76
2022/07/02 03:33:24;;;;;;;9.57;8.87;;;;;;;-143.84;91.51;45033.84;5049530;28;20437;-75
2022/07/02 03:35:51;;;;;;;11.60;10.60;;;;;;;-143.84;91.33;45009.09;5049539;28;20947;-75
2022/07/02 03:38:18;;;;;;;9.60;8.90;;;;;;;-143.84;91.15;45056.69;5049827;28;20441;-76
2022/07/02 03:40:47;;;;;;;9.70;8.90;;;;;;;-143.84;91.88;45047.16;5049234;28;20783;-75
2022/07/02 03:43:14;;;;;;;9.97;9.17;;;;;;;-143.84;92.03;45016.69;5049007;28;20442;-75
2022/07/02 03:45:41;;;;;;;9.47;8.60;;;;;;;-143.84;90.18;45001.47;5048803;28;20441;-74
2022/07/02 03:48:08;;;;;;;7.43;6.77;;;;;;;-143.84;85.43;45010.97;5049278;28;20445;-74
2022/07/02 03:50:38;;;;;;;8.33;7.67;;;;;;;-143.84;81.70;44978.63;5050239;28;20531;-77
2022/07/02 03:53:05;;;;;;;7.87;7.20;;;;;;;-143.84;77.42;44976.72;5049660;28;20521;-76
2022/07/02 03:55:33;;;;;;;8.53;6.23;;;;;;;-143.84;73.73;44984.31;5049684;28;20879;-74
2022/07/02 03:58:01;;;;;;;7.90;6.50;;;;;;;-143.84;70.83;44971.00;5067487;28;20923;-79
2022/07/02 04:00:29;;;;;;;6.43;5.77;;;;;;;-143.84;68.92;44927.19;5070582;28;20500;-77
2022/07/02 04:02:56;;;;;;;12.77;6.00;;;;;;;-143.84;66.82;44959.56;5069876;28;20444;-76
2022/07/02 04:05:23;;;;;;;6.13;5.53;;;;;;;-143.84;65.14;44917.69;5068505;28;20904;-76
2022/07/02 04:07:51;;;;;;;6.30;5.70;;;;;;;-143.84;63.08;44927.19;5070608;28;20491;-76
2022/07/02 04:10:18;;;;;;;10.10;5.63;;;;;;;-143.84;61.92;44921.50;5069873;28;20511;-76
2022/07/02 04:12:45;;;;;;;5.50;5.20;;;;;;;-143.84;59.39;44892.94;5069982;28;20503;-77
2022/07/02 04:15:14;;;;;;;8.00;5.57;;;;;;;-143.84;60.04;44906.25;5072507;28;20436;-77
2022/07/02 04:17:41;;;;;;;6.30;5.33;;;;;;;-143.84;60.04;44911.97;5073681;28;20506;-76
2022/07/02 04:20:09;;;;;;;5.00;4.60;;;;;;;-143.84;60.11;44919.59;5073641;28;20444;-77
2022/07/02 04:22:36;;;;;;;4.90;4.60;;;;;;;-143.84;60.21;44870.09;5073591;28;20436;-77
2022/07/02 04:25:04;;;;;;;6.00;5.60;;;;;;;-143.84;60.07;44900.53;5073711;28;20476;-76
2022/07/02 04:27:31;;;;;;;5.00;4.60;;;;;;;-143.84;61.01;44917.69;5073704;28;20440;-77
2022/07/02 04:29:58;;;;;;;7.87;5.27;;;;;;;-143.84;61.80;44896.75;5072684;28;20559;-77
2022/07/02 04:32:27;;;;;;;6.00;5.47;;;;;;;-143.84;61.09;44902.44;5072458;28;20444;-77
2022/07/02 04:34:54;;;;;;;5.40;4.97;;;;;;;-143.84;61.09;44919.59;5072546;28;20915;-77
2022/07/02 04:37:21;;;;;;;4.83;4.43;;;;;;;-143.84;60.45;44894.84;5072628;28;20441;-76
2022/07/02 04:39:48;;;;;;;5.80;5.13;;;;;;;-143.84;60.07;44887.22;5072711;28;20437;-77
2022/07/02 04:42:15;;;;;;;4.43;4.10;;;;;;;-143.84;57.19;44900.53;5072680;28;20494;-76
2022/07/02 04:44:42;;;;;;;4.40;4.00;;;;;;;-143.84;56.96;44894.84;5072553;28;20437;-77
2022/07/02 04:47:10;;;;;;;4.53;4.17;;;;;;;-143.84;57.39;44908.16;5070393;28;20444;-75
2022/07/02 04:49:39;;;;;;;8.93;5.10;;;;;;;-143.84;57.13;44915.78;5070276;28;20503;-76
2022/07/02 04:52:06;;;;;;;6.43;5.10;;;;;;;-143.84;57.10;44894.84;5071949;28;20468;-77
2022/07/02 04:54:33;;;;;;;5.03;4.53;;;;;;;-143.84;58.01;44911.97;5072405;28;20527;-76
2022/07/02 04:57:01;;;;;;;7.30;4.20;;;;;;;-143.84;56.61;44908.16;5072448;28;20479;-76
2022/07/02 04:59:28;;;;;;;5.23;4.40;;;;;;;-143.84;55.78;44883.41;5072340;28;20503;-77
2022/07/02 05:01:55;;;;;;;4.87;3.90;;;;;;;-143.84;55.03;44910.06;5072439;28;20433;-77
2022/07/02 05:04:22;;;;;;;4.93;4.47;;;;;;;-143.84;53.79;44887.22;5072453;28;21234;-77
2022/07/02 05:06:51;;;;;;;7.33;4.73;;;;;;;-143.84;52.61;44915.78;5072391;28;20487;-77
2022/07/02 05:09:18;;;;;;;4.67;4.30;;;;;;;-143.84;51.53;44904.34;5073061;28;20437;-77
2022/07/02 05:11:45;;;;;;;5.13;4.73;;;;;;;-143.84;51.69;44877.69;5072446;28;20476;-77
2022/07/02 05:14:12;;;;;;;6.40;5.33;;;;;;;-143.84;52.89;44883.41;5072571;28;20461;-77
2022/07/02 05:16:39;;;;;;;4.93;4.53;;;;;;;-143.84;50.70;44885.31;5072502;28;20436;-77
2022/07/02 05:19:07;;;;;;;7.63;5.00;;;;;;;-143.84;50.23;44896.75;5072902;28;20494;-77
2022/07/02 05:21:34;;;;;;;6.30;5.73;;;;;;;-143.84;51.45;44870.09;5072328;28;20461;-77
2022/07/02 05:24:02;;;;;;;5.47;5.00;;;;;;;-143.84;51.36;44900.53;5072085;28;20459;-77
2022/07/02 05:26:29;;;;;;;6.70;5.17;;;;;;;-143.84;51.59;44864.38;5071188;28;20481;-77
2022/07/02 05:28:56;;;;;;;5.63;5.20;;;;;;;-143.84;49.70;44881.50;5071945;28;20502;-77
2022/07/02 05:31:24;;;;;;;4.87;4.57;;;;;;;-143.84;48.70;44866.28;5072052;28;20484;-77
2022/07/02 05:33:51;;;;;;;8.27;5.17;;;;;;;-143.84;49.05;44854.84;5072374;28;20559;-77
2022/07/02 05:36:18;;;;;;;4.70;4.30;;;;;;;-143.84;48.47;44858.66;5071757;28;20449;-77
2022/07/02 05:38:45;;;;;;;10.37;6.23;;;;;;;-143.84;48.30;44883.41;5071915;28;20486;-77
2022/07/02 05:41:14;;;;;;;9.57;5.90;;;;;;;-143.84;50.80;44881.50;5072230;28;20494;-77
2022/07/02 05:43:41;;;;;;;13.53;7.60;;;;;;;-143.84;52.32;44864.38;5072292;28;20479;-77
2022/07/02 05:46:08;;;;;;;12.90;6.87;;;;;;;-143.84;52.18;44889.13;5071633;28;20984;-77
2022/07/02 05:48:36;;;;;;;7.30;5.30;;;;;;;-143.84;49.94;44866.28;5071623;28;20502;-77
2022/07/02 05:51:05;;;;;;;23.80;8.90;;;;;;;-143.84;51.07;44851.03;5071944;28;20473;-77
2022/07/02 05:53:32;;;;;;;11.60;6.20;;;;;;;-143.84;51.39;44854.84;5071561;28;21086;-78
2022/07/02 05:55:59;;;;;;;8.97;5.77;;;;;;;-143.84;51.25;44839.63;5071939;28;20506;-77
2022/07/02 05:58:27;;;;;;;5.70;5.10;;;;;;;-143.84;48.26;44849.13;5071950;28;20429;-77
2022/07/02 06:00:55;;;;;;;6.47;4.87;;;;;;;-143.84;47.49;44849.13;5071660;28;20433;-77
2022/07/02 06:03:22;;;;;;;13.67;5.10;;;;;;;-143.84;47.79;44849.13;5071972;28;20491;-78
2022/07/02 06:08:33;;;;;;;7.37;5.40;;;;;;;-143.84;48.13;44871.97;5071384;28;20428;-76
2022/07/02 06:11:00;;;;;;;12.27;6.30;;;;;;;-143.84;48.54;44866.28;5071316;28;20484;-78
2022/07/02 06:13:29;;;;;;;18.07;7.70;;;;;;;-143.84;49.57;44854.84;5071300;28;20491;-77
2022/07/02 06:15:56;;;;;;;13.77;7.17;;;;;;;-143.84;50.08;44871.97;5071273;28;20445;-77
2022/07/02 06:18:24;;;;;;;10.30;5.90;;;;;;;-143.84;50.20;44862.47;5071331;28;20506;-77
2022/07/02 06:20:51;;;;;;;6.67;6.07;;;;;;;-143.84;49.81;44879.59;5071186;28;20429;-78
2022/07/02 06:23:21;;;;;;;6.50;4.97;;;;;;;-143.84;49.54;44847.22;5071164;28;20490;-78
2022/07/02 06:25:49;;;;;;;8.43;5.67;;;;;;;-143.84;50.90;44839.63;5071038;28;20535;-78
2022/07/02 06:28:16;;;;;;;6.10;5.50;;;;;;;-143.84;50.27;44843.44;5071277;28;20437;-80
2022/07/02 06:30:45;;;;;;;12.20;6.57;;;;;;;-143.84;49.42;44849.13;5071932;28;20499;-78
2022/07/02 06:33:13;;;;;;;7.43;5.87;;;;;;;-143.84;50.99;44818.66;5052492;28;20454;-78
2022/07/02 06:35:42;;;;;;;42.00;7.30;;;;;;;-143.84;50.67;44839.63;5049837;28;20433;-78
2022/07/02 06:38:11;;;;;;;12.67;5.57;;;;;;;-143.84;52.20;44864.38;5049701;28;20520;-78
2022/07/02 06:40:38;;;;;;;5.70;5.20;;;;;;;-143.84;51.90;44870.09;5049866;28;20469;-74
2022/07/02 06:43:06;;;;;;;5.87;5.43;;;;;;;-143.84;52.86;44885.31;5049425;28;20446;-78
2022/07/02 06:45:33;;;;;;;5.93;4.47;;;;;;;-143.84;49.66;44835.81;5050389;28;20433;-76
2022/07/02 06:48:01;;;;;;;5.60;5.10;;;;;;;-143.84;48.63;44833.91;5050969;28;20438;-78
2022/07/02 06:50:29;;;;;;;4.57;4.27;;;;;;;-143.84;47.71;44856.75;5051161;28;20442;-78
2022/07/02 06:52:56;;;;;;;4.20;3.90;;;;;;;-143.84;46.69;44841.53;5054491;28;20441;-78
2022/07/02 06:55:23;;;;;;;8.57;4.50;;;;;;;-143.84;46.03;44847.22;5051643;28;20438;-78
2022/07/02 06:57:50;;;;;;;9.43;5.27;;;;;;;-143.84;45.79;44830.09;5050740;28;20496;-77
2022/07/02 07:00:21;;;;;;;30.33;6.33;;;;;;;-143.84;45.70;44797.72;5050624;28;20430;-77
2022/07/02 07:02:48;;;;;;;11.30;4.83;;;;;;;-143.84;45.35;44832.00;5050559;28;20939;-80
2022/07/02 07:05:17;;;;;;;5.63;4.80;;;;;;;-143.84;45.32;44843.44;5051214;28;20511;-80
2022/07/02 07:07:44;;;;;;;16.80;6.07;;;;;;;-143.84;47.83;44818.66;5050545;28;20454;-80
2022/07/02 07:10:12;;;;;;;5.07;4.43;;;;;;;-143.84;43.82;44843.44;5050899;28;20491;-80
2022/07/02 07:12:39;;;;;;;13.90;4.57;;;;;;;-143.84;44.16;44807.25;5052091;28;20474;-80
2022/07/02 07:15:09;;;;;;;5.23;4.80;;;;;;;-143.84;43.24;44830.09;5052497;28;20492;-80
2022/07/02 07:17:37;;;;;;;8.47;5.10;;;;;;;-143.84;44.69;44833.91;5051369;28;20446;-80
2022/07/02 07:20:06;;;;;;;6.97;4.30;;;;;;;-143.84;44.25;44811.06;5057187;28;20436;-79
2022/07/02 07:22:35;;;;;;;5.43;4.50;;;;;;;-143.84;45.21;44847.22;5070292;28;20491;-80
2022/07/02 07:25:02;;;;;;;5.30;4.80;;;;;;;-143.84;44.96;44837.72;5070574;28;20847;-79
2022/07/02 07:27:29;;;;;;;7.60;4.80;;;;;;;-143.84;45.91;44841.53;5070747;28;20435;-80
2022/07/02 07:29:58;;;;;;;10.80;4.40;;;;;;;-143.84;46.32;44851.03;5070892;28;20425;-80
2022/07/02 07:32:25;;;;;;;4.60;4.10;;;;;;;-143.84;41.79;44868.19;5070197;28;20472;-79
2022/07/02 07:34:52;;;;;;;4.57;4.17;;;;;;;-143.84;40.36;44822.47;5069921;28;20437;-79
2022/07/02 07:37:19;;;;;;;5.07;4.27;;;;;;;-143.84;39.76;44839.63;5070294;28;20949;-78
2022/07/02 07:39:48;;;;;;;32.53;5.87;;;;;;;-143.84;40.91;44828.19;5069726;28;20444;-79
2022/07/02 07:42:15;;;;;;;10.80;4.37;;;;;;;-143.84;40.49;44801.53;5069806;28;20510;-81
2022/07/02 07:44:43;;;;;;;43.90;7.23;;;;;;;-143.84;39.50;44809.16;5069626;28;20528;-79
2022/07/02 07:47:10;;;;;;;8.50;3.83;;;;;;;-143.84;40.78;44820.56;5071101;28;20425;-80
2022/07/02 07:49:37;;;;;;;7.63;3.80;;;;;;;-143.84;36.58;44820.56;5070890;28;20440;-78
2022/07/02 07:52:05;;;;;;;12.57;4.17;;;;;;;-143.84;35.96;44818.66;5072968;28;20472;-77
2022/07/02 07:54:32;;;;;;;7.67;4.40;;;;;;;-143.84;35.90;44824.38;5074717;28;20436;-79
2022/07/02 07:57:00;;;;;;;6.83;3.87;;;;;;;-143.84;36.23;44818.66;5074630;28;20435;-78
2022/07/02 07:59:28;;;;;;;8.00;4.30;;;;;;;-143.84;36.71;44828.19;5075237;28;20447;-76
2022/07/02 08:01:55;;;;;;;4.43;4.13;;;;;;;-143.84;35.02;44828.19;5071802;28;20452;-79
2022/07/02 08:04:22;;;;;;;3.97;3.50;;;;;;;-143.84;34.34;44812.97;5074064;28;20845;-79
2022/07/02 08:06:49;;;;;;;4.13;3.83;;;;;;;-143.84;33.65;44809.16;5074359;28;20502;-78
2022/07/02 08:09:17;;;;;;;4.67;4.30;;;;;;;-143.84;34.21;44805.34;5073990;28;20437;-77
2022/07/02 08:11:44;;;;;;;4.60;4.20;;;;;;;-143.84;35.90;44797.72;5074150;28;20476;-78
2022/07/02 08:14:12;;;;;;;7.27;4.30;;;;;;;-143.84;35.18;44818.66;5074592;28;20448;-78
2022/07/02 08:16:39;;;;;;;3.70;3.40;;;;;;;-143.84;34.54;44809.16;5074953;28;20522;-79
2022/07/02 08:19:07;;;;;;;3.70;3.40;;;;;;;-143.84;34.37;44816.78;5074978;28;20443;-79
2022/07/02 08:21:34;;;;;;;3.90;3.70;;;;;;;-143.84;33.98;44824.38;5075420;28;20763;-79
2022/07/02 08:24:01;;;;;;;4.17;3.87;;;;;;;-143.84;33.29;44811.06;5074926;28;20432;-79
2022/07/02 08:26:28;;;;;;;6.93;4.33;;;;;;;-143.84;33.84;44790.13;5074726;28;21005;-79
2022/07/02 08:28:55;;;;;;;5.87;4.07;;;;;;;-143.84;33.68;44805.34;5075052;28;20514;-79
2022/07/02 08:31:24;;;;;;;4.90;3.33;;;;;;;-143.84;33.22;44780.59;5074562;28;20530;-79
2022/07/02 08:33:52;;;;;;;4.10;3.70;;;;;;;-143.84;32.63;44780.59;5074799;28;20510;-79
2022/07/02 08:36:19;;;;;;;3.70;3.50;;;;;;;-143.84;33.35;44776.78;5074438;28;20907;-78
2022/07/02 08:38:46;;;;;;;5.80;4.30;;;;;;;-143.84;33.01;44778.69;5075212;28;20432;-77
2022/07/02 08:41:14;;;;;;;3.87;3.67;;;;;;;-143.84;32.72;44776.78;5065421;28;20977;-77
2022/07/02 08:43:42;;;;;;;4.23;3.93;;;;;;;-143.84;32.78;44805.34;5072584;28;20483;-77
2022/07/02 08:46:10;;;;;;;4.30;4.00;;;;;;;-143.84;33.08;44771.06;5072932;28;20445;-75
2022/07/02 08:48:41;;;;;;;4.30;3.90;;;;;;;-143.84;33.51;44792.00;5073786;28;20445;-79
2022/07/02 08:51:10;;;;;;;8.40;3.90;;;;;;;-143.84;32.87;44742.50;5071548;28;20462;-79
2022/07/02 08:53:39;;;;;;;3.77;3.40;;;;;;;-143.84;33.39;44795.81;5054441;28;20433;-79
2022/07/02 08:56:07;;;;;;;3.67;3.37;;;;;;;-143.84;33.28;44792.00;5054081;28;20430;-79
2022/07/02 08:58:35;;;;;;;8.60;3.77;;;;;;;-143.84;33.65;44786.31;5053033;28;20449;-78
2022/07/02 09:01:04;;;;;;;3.97;3.50;;;;;;;-143.84;33.03;44788.22;5053251;28;20430;-79
2022/07/02 09:03:33;;;;;;;4.20;3.93;;;;;;;-143.84;33.46;44772.97;5052769;28;20430;-79
2022/07/02 09:06:03;;;;;;;11.43;3.93;;;;;;;-143.84;32.97;44826.28;5052471;28;20446;-78
2022/07/02 09:08:31;;;;;;;4.00;3.57;;;;;;;-143.84;34.04;44803.44;5051957;28;20504;-79
2022/07/02 09:10:59;;;;;;;4.07;3.87;;;;;;;-143.84;34.57;44799.63;5048815;28;20441;-79
2022/07/02 09:13:28;;;;;;;3.70;3.40;;;;;;;-143.84;33.52;44790.13;5050042;28;20493;-79
2022/07/02 09:15:56;;;;;;;7.13;3.90;;;;;;;-143.84;33.84;44774.88;5052361;28;20445;-79
2022/07/02 09:18:23;;;;;;;5.17;3.67;;;;;;;-143.84;33.54;44797.72;5053161;28;20442;-79
2022/07/02 09:20:50;;;;;;;4.33;4.07;;;;;;;-143.84;33.96;44786.31;5052904;28;20453;-79
2022/07/02 09:23:23;;;;;;;4.87;4.43;;;;;;;-143.84;33.50;44828.19;5052175;28;20865;-75
2022/07/02 09:25:51;;;;;;;5.90;4.30;;;;;;;-143.84;34.26;44799.63;5051570;28;20516;-75
2022/07/02 09:28:19;;;;;;;7.40;4.07;;;;;;;-143.84;33.90;44788.22;5051953;28;20434;-75
2022/07/02 09:30:46;;;;;;;6.30;4.00;;;;;;;-143.84;33.87;44820.56;5051732;28;20437;-75
2022/07/02 09:33:31;;;;;;;8.90;4.03;;;;;;;-143.84;34.64;44803.44;5051634;28;21033;-75
2022/07/02 09:35:59;;;;;;;7.03;4.70;;;;;;;-143.84;34.37;44790.13;5051728;28;20524;-75
2022/07/02 09:38:28;;;;;;;10.57;4.40;;;;;;;-143.84;34.18;44807.25;5051201;28;20960;-75
2022/07/02 09:40:56;;;;;;;4.40;4.00;;;;;;;-143.84;34.45;44780.59;5051524;28;20438;-75
2022/07/02 09:43:30;;;;;;;4.50;3.70;;;;;;;-143.84;34.64;44793.91;5051965;28;20437;-74
2022/07/02 09:45:58;;;;;;;4.00;3.80;;;;;;;-143.84;34.58;44811.06;5051396;28;20456;-75
2022/07/02 09:48:26;;;;;;;13.90;4.50;;;;;;;-143.84;35.47;44797.72;5051433;28;20445;-75
2022/07/02 09:50:53;;;;;;;5.40;4.90;;;;;;;-143.84;35.66;44793.91;5051213;28;20861;-74
2022/07/02 09:53:20;;;;;;;4.70;4.30;;;;;;;-143.84;34.99;44828.19;5051281;28;20477;-75
2022/07/02 09:55:52;;;;;;;8.17;4.90;;;;;;;-143.84;35.95;44845.31;5051346;28;20441;-75
2022/07/02 09:58:25;;;;;;;8.33;4.07;;;;;;;-143.84;35.84;44812.97;5051298;28;20437;-75
2022/07/02 10:00:54;;;;;;;4.93;4.53;;;;;;;-143.84;36.10;44828.19;5051146;28;20448;-75
2022/07/02 10:03:21;;;;;;;5.73;4.10;;;;;;;-143.84;36.27;44820.56;5051216;28;20445;-75
2022/07/02 10:05:52;;;;;;;6.83;4.10;;;;;;;-143.84;36.56;44778.69;5051164;28;20437;-74
2022/07/02 10:08:19;;;;;;;4.10;3.80;;;;;;;-143.84;36.64;44828.19;5051016;28;20448;-75
2022/07/02 10:10:46;;;;;;;5.07;4.23;;;;;;;-143.84;37.07;44809.16;5050901;28;20445;-74
2022/07/02 10:13:16;;;;;;;4.30;3.90;;;;;;;-143.84;37.50;44837.72;5050135;28;20532;-75
2022/07/02 10:15:51;;;;;;;4.80;4.40;;;;;;;-143.84;37.41;44824.38;5050904;28;20454;-74
2022/07/02 10:18:20;;;;;;;5.00;4.60;;;;;;;-143.84;38.46;44852.94;5051259;28;20464;-74
2022/07/02 10:20:48;;;;;;;5.50;4.37;;;;;;;-143.84;38.01;44835.81;5050743;28;20529;-75
2022/07/02 10:23:17;;;;;;;4.70;4.17;;;;;;;-143.84;38.50;44814.88;5050675;28;20484;-75
2022/07/02 10:25:45;;;;;;;4.20;3.63;;;;;;;-143.84;38.09;44843.44;5050601;28;20525;-75
2022/07/02 10:28:12;;;;;;;7.10;4.40;;;;;;;-143.84;37.68;44826.28;5050755;28;20590;-75
2022/07/02 10:30:42;;;;;;;6.07;4.10;;;;;;;-143.84;39.00;44824.38;5050735;28;20434;-75
2022/07/02 10:33:20;;;;;;;4.27;3.87;;;;;;;-143.84;38.23;44832.00;5050841;28;20879;-75
2022/07/02 10:35:49;;;;;;;6.90;4.33;;;;;;;-143.84;38.29;44843.44;5050565;28;20434;-75
2022/07/02 10:38:28;;;;;;;8.03;4.70;;;;;;;-143.84;38.94;44832.00;5050439;28;20836;-75
2022/07/02 10:40:56;;;;;;;4.20;3.73;;;;;;;-143.84;39.18;44832.00;5050420;28;20473;-74
2022/07/02 10:43:26;;;;;;;6.00;4.30;;;;;;;-143.84;39.66;44830.09;5050621;28;20765;-75
2022/07/02 10:46:04;;;;;;;4.80;4.50;;;;;;;-143.84;38.92;44812.97;5050356;28;20445;-75
2022/07/02 10:48:33;;;;;;;4.87;4.47;;;;;;;-143.84;39.15;44837.72;5050626;28;20452;-75
2022/07/02 10:51:00;;;;;;;4.97;4.47;;;;;;;-143.84;39.06;44879.59;5050924;28;20441;-75
2022/07/02 10:53:29;;;;;;;16.53;5.13;;;;;;;-143.84;38.21;44868.19;5057511;28;20478;-77
2022/07/02 10:56:02;;;;;;;4.77;4.30;;;;;;;-143.84;40.49;44889.13;5050342;28;20851;-75
2022/07/02 10:58:31;;;;;;;4.90;4.50;;;;;;;-143.84;41.08;44851.03;5050086;28;20446;-75
2022/07/02 11:01:10;;;;;;;5.07;4.63;;;;;;;-143.84;41.72;44849.13;5050255;28;20434;-75
2022/07/02 11:03:38;;;;;;;8.87;4.57;;;;;;;-143.84;39.54;44868.19;5050244;28;20442;-75
2022/07/02 11:06:08;;;;;;;17.23;4.70;;;;;;;-143.84;39.84;44828.19;5049855;28;20499;-75
2022/07/02 11:08:54;;;;;;;7.13;4.43;;;;;;;-143.84;38.35;44870.09;5050489;28;20434;-75
2022/07/02 11:11:23;;;;;;;6.60;4.87;;;;;;;-143.84;39.01;44866.28;5049764;28;20939;-74
2022/07/02 11:13:55;;;;;;;7.13;4.87;;;;;;;-143.84;38.22;44858.66;5050154;28;20858;-75
2022/07/02 11:16:27;;;;;;;5.93;5.40;;;;;;;-143.84;39.48;44870.09;5049998;28;20438;-75
2022/07/02 11:18:55;;;;;;;12.37;4.90;;;;;;;-143.84;39.62;44849.13;5050063;28;20500;-75
2022/07/02 11:21:24;;;;;;;7.20;4.83;;;;;;;-143.84;40.83;44858.66;5050254;28;20438;-75
2022/07/02 11:23:53;;;;;;;6.87;5.43;;;;;;;-143.84;41.22;44852.94;5049478;28;20442;-75